createdAt,value
2023-03-29T00:00:31.978Z,5.55
2023-03-29T00:02:59.563Z,5.82
2023-03-29T00:05:26.700Z,9.93
2023-03-29T00:07:54.465Z,6.85
2023-03-29T00:10:24.248Z,8.05
2023-03-29T00:12:52.704Z,8.82
2023-03-29T00:15:21.210Z,9.23
2023-03-29T00:17:48.760Z,9.23
2023-03-29T00:20:16.805Z,10.65
2023-03-29T00:22:48.585Z,9.55
2023-03-29T00:25:16.586Z,9.82
2023-03-29T00:27:43.678Z,7.82
2023-03-29T00:30:11.586Z,9.60
2023-03-29T00:32:39.232Z,8.40
2023-03-29T00:35:07.723Z,7.80
2023-03-29T00:37:35.180Z,8.25
2023-03-29T00:40:02.572Z,7.47
2023-03-29T00:42:33.236Z,4.95
2023-03-29T00:45:21.484Z,10.60
2023-03-29T00:47:57.278Z,6.55
2023-03-29T00:50:29.865Z,5.80
2023-03-29T00:53:04.958Z,4.90
2023-03-29T00:55:44.724Z,5.32
2023-03-29T00:58:15.994Z,4.72
2023-03-29T01:00:52.468Z,5.55
2023-03-29T01:03:27.615Z,5.45
2023-03-29T01:06:05.473Z,6.68
2023-03-29T01:08:39.908Z,6.00
2023-03-29T01:11:31.055Z,5.72
2023-03-29T01:14:05.705Z,5.03
2023-03-29T01:16:38.461Z,4.70
2023-03-29T01:19:09.044Z,5.07
2023-03-29T01:21:49.543Z,5.13
2023-03-29T01:24:46.148Z,4.60
2023-03-29T01:27:23.648Z,5.78
2023-03-29T01:29:57.481Z,9.40
2023-03-29T01:32:35.636Z,7.32
2023-03-29T01:35:10.753Z,9.27
2023-03-29T01:37:44.212Z,6.40
2023-03-29T01:40:12.371Z,5.47
2023-03-29T01:42:50.022Z,4.85
2023-03-29T01:45:31.508Z,5.30
2023-03-29T01:48:25.419Z,3.67
2023-03-29T01:50:56.025Z,3.42
2023-03-29T01:53:30.603Z,5.40
2023-03-29T01:56:05.230Z,6.53
2023-03-29T01:58:35.855Z,4.13
2023-03-29T02:01:06.083Z,5.82
2023-03-29T02:03:34.860Z,5.75
2023-03-29T02:06:05.486Z,3.30
2023-03-29T02:08:33.150Z,6.70
2023-03-29T02:11:01.633Z,7.38
2023-03-29T02:13:29.286Z,8.57
2023-03-29T02:15:56.817Z,7.00
2023-03-29T02:18:24.832Z,8.55
2023-03-29T02:20:53.220Z,7.18
2023-03-29T02:23:28.980Z,9.52
2023-03-29T02:25:57.248Z,5.00
2023-03-29T02:28:27.190Z,5.82
2023-03-29T02:31:06.546Z,5.35
2023-03-29T02:33:35.614Z,5.78
2023-03-29T02:36:15.857Z,6.60
2023-03-29T02:38:45.099Z,8.55
2023-03-29T02:41:13.172Z,7.72
2023-03-29T02:43:42.834Z,5.78
2023-03-29T02:46:12.650Z,6.03
2023-03-29T02:48:41.059Z,7.00
2023-03-29T02:51:19.429Z,5.72
2023-03-29T02:53:53.509Z,7.13
2023-03-29T02:56:21.227Z,6.22
2023-03-29T02:58:48.640Z,6.97
2023-03-29T03:01:17.890Z,8.38
2023-03-29T03:03:45.525Z,5.32
2023-03-29T03:06:13.646Z,13.18
2023-03-29T03:08:40.827Z,5.20
2023-03-29T03:11:08.638Z,5.68
2023-03-29T03:13:35.844Z,6.95
2023-03-29T03:16:03.417Z,5.50
2023-03-29T03:18:30.737Z,7.82
2023-03-29T03:21:01.916Z,5.93
2023-03-29T03:23:29.682Z,6.50
2023-03-29T03:25:57.422Z,6.47
2023-03-29T03:28:27.479Z,5.88
2023-03-29T03:30:55.755Z,9.20
2023-03-29T03:33:27.192Z,6.05
2023-03-29T03:36:13.394Z,8.10
2023-03-29T03:38:44.269Z,4.57
2023-03-29T03:41:11.825Z,5.72
2023-03-29T03:43:41.624Z,5.68
2023-03-29T03:46:09.479Z,4.65
2023-03-29T03:48:37.373Z,5.93
2023-03-29T03:51:17.987Z,4.10
2023-03-29T03:53:45.200Z,3.15
2023-03-29T03:56:13.560Z,5.88
2023-03-29T03:59:07.430Z,5.28
2023-03-29T04:01:43.911Z,3.58
2023-03-29T04:04:20.555Z,6.07
2023-03-29T04:07:03.323Z,3.85
2023-03-29T04:09:37.758Z,3.10
2023-03-29T04:12:25.878Z,4.40
2023-03-29T04:14:53.175Z,4.90
2023-03-29T04:17:24.660Z,4.22
2023-03-29T04:19:58.269Z,3.15
2023-03-29T04:22:28.337Z,3.83
2023-03-29T04:24:55.491Z,2.78
2023-03-29T04:27:58.507Z,6.53
2023-03-29T04:30:45.372Z,5.40
2023-03-29T04:33:47.814Z,3.45
2023-03-29T04:36:16.203Z,2.70
2023-03-29T04:38:47.412Z,2.85
2023-03-29T04:41:16.189Z,3.83
2023-03-29T04:44:03.700Z,5.72
2023-03-29T04:46:32.809Z,4.93
2023-03-29T04:49:06.377Z,6.57
2023-03-29T04:51:37.589Z,5.65
2023-03-29T04:54:05.528Z,2.67
2023-03-29T04:56:45.664Z,5.60
2023-03-29T04:59:33.377Z,3.47
2023-03-29T05:02:05.082Z,5.07
2023-03-29T05:04:33.164Z,3.05
2023-03-29T05:07:10.344Z,3.05
2023-03-29T05:09:37.837Z,3.72
2023-03-29T05:12:06.654Z,3.17
2023-03-29T05:14:46.105Z,4.20
2023-03-29T05:17:13.416Z,4.40
2023-03-29T05:19:40.978Z,4.93
2023-03-29T05:22:09.288Z,4.65
2023-03-29T05:24:37.585Z,4.30
2023-03-29T05:27:14.602Z,3.10
2023-03-29T05:29:44.916Z,3.13
2023-03-29T05:32:37.585Z,4.00
2023-03-29T05:35:06.265Z,4.47
2023-03-29T05:37:35.231Z,5.20
2023-03-29T05:40:10.374Z,4.70
2023-03-29T05:43:02.742Z,3.58
2023-03-29T05:45:30.273Z,4.43
2023-03-29T05:47:58.026Z,4.28
2023-03-29T05:50:25.752Z,4.50
2023-03-29T05:52:53.327Z,7.82
2023-03-29T05:55:20.546Z,4.90
2023-03-29T05:57:47.840Z,6.75
2023-03-29T06:00:25.838Z,3.58
2023-03-29T06:03:14.112Z,3.70
2023-03-29T06:05:49.962Z,5.35
2023-03-29T06:08:18.454Z,3.63
2023-03-29T06:11:06.345Z,5.32
2023-03-29T06:13:53.113Z,5.30
2023-03-29T06:16:20.725Z,4.90
2023-03-29T06:18:48.164Z,6.10
2023-03-29T06:21:15.570Z,3.70
2023-03-29T06:23:43.187Z,4.90
2023-03-29T06:26:11.094Z,5.15
2023-03-29T06:28:39.361Z,6.90
2023-03-29T06:31:06.896Z,5.43
2023-03-29T06:33:38.732Z,8.43
2023-03-29T06:36:29.012Z,4.85
2023-03-29T06:38:56.356Z,5.15
2023-03-29T06:41:44.404Z,7.72
2023-03-29T06:44:24.161Z,6.15
2023-03-29T06:47:00.683Z,4.70
2023-03-29T06:49:28.333Z,8.02
2023-03-29T06:52:06.177Z,7.63
2023-03-29T06:54:33.820Z,10.48
2023-03-29T06:57:04.850Z,10.25
2023-03-29T06:59:35.104Z,5.70
2023-03-29T07:02:16.849Z,5.50
2023-03-29T07:04:56.781Z,10.85
2023-03-29T07:07:44.114Z,8.52
2023-03-29T07:10:32.950Z,8.88
2023-03-29T07:13:23.826Z,7.00
2023-03-29T07:15:53.146Z,6.75
2023-03-29T07:18:44.454Z,5.78
2023-03-29T07:21:17.731Z,6.25
2023-03-29T07:23:47.467Z,8.65
2023-03-29T07:26:28.454Z,7.03
2023-03-29T07:28:56.592Z,4.30
2023-03-29T07:31:23.937Z,4.55
2023-03-29T07:33:56.864Z,5.00
2023-03-29T07:36:28.696Z,4.50
2023-03-29T07:38:57.253Z,6.55
2023-03-29T07:41:25.522Z,6.85
2023-03-29T07:44:06.601Z,8.15
2023-03-29T07:46:33.697Z,5.65
2023-03-29T07:49:00.952Z,6.05
2023-03-29T07:51:28.514Z,4.60
2023-03-29T07:54:05.541Z,4.03
2023-03-29T07:56:41.694Z,5.45
2023-03-29T07:59:17.835Z,8.27
2023-03-29T08:01:50.465Z,5.05
2023-03-29T08:04:31.997Z,6.00
2023-03-29T08:07:21.390Z,5.18
2023-03-29T08:10:09.957Z,3.17
2023-03-29T08:13:12.538Z,3.20
2023-03-29T08:15:52.077Z,3.15
2023-03-29T08:18:27.112Z,3.95
2023-03-29T08:20:54.211Z,6.70
2023-03-29T08:23:21.450Z,5.38
2023-03-29T08:25:52.282Z,6.03
2023-03-29T08:28:19.700Z,5.10
2023-03-29T08:30:51.151Z,4.18
2023-03-29T08:33:18.883Z,3.97
2023-03-29T08:35:51.743Z,2.95
2023-03-29T08:38:22.821Z,2.58
2023-03-29T08:40:52.103Z,3.90
2023-03-29T08:43:40.919Z,3.38
2023-03-29T08:46:39.725Z,4.88
2023-03-29T08:49:23.592Z,3.97
2023-03-29T08:52:01.467Z,2.58
2023-03-29T08:54:41.333Z,6.10
2023-03-29T08:57:25.862Z,1.98
2023-03-29T09:00:02.028Z,2.55
2023-03-29T09:02:36.126Z,1.92
2023-03-29T09:07:42.326Z,4.05
2023-03-29T09:10:16.515Z,3.03
2023-03-29T09:13:04.196Z,2.20
2023-03-29T09:15:48.701Z,2.85
2023-03-29T09:19:17.498Z,2.15
2023-03-29T09:21:54.587Z,5.43
2023-03-29T09:25:02.139Z,4.72
2023-03-29T09:27:35.258Z,4.22
2023-03-29T09:30:34.806Z,4.50
2023-03-29T09:33:22.198Z,4.18
2023-03-29T09:36:18.895Z,2.80
2023-03-29T09:38:51.250Z,2.78
2023-03-29T09:41:26.818Z,4.13
2023-03-29T09:43:57.701Z,3.90
2023-03-29T09:46:45.249Z,5.47
2023-03-29T09:49:17.750Z,3.30
2023-03-29T09:51:49.652Z,4.43
2023-03-29T09:54:21.059Z,3.53
2023-03-29T09:57:19.598Z,4.82
2023-03-29T09:59:49.768Z,2.90
2023-03-29T10:02:20.170Z,3.65
2023-03-29T10:04:55.807Z,4.70
2023-03-29T10:07:23.752Z,3.90
2023-03-29T10:09:56.968Z,3.10
2023-03-29T10:12:24.991Z,3.53
2023-03-29T10:14:54.402Z,2.55
2023-03-29T10:17:28.263Z,2.42
2023-03-29T10:20:04.492Z,2.78
2023-03-29T10:22:41.278Z,2.47
2023-03-29T10:25:17.575Z,2.97
2023-03-29T10:27:48.218Z,3.15
2023-03-29T10:30:24.375Z,3.22
2023-03-29T10:33:01.285Z,3.72
2023-03-29T10:35:38.340Z,2.22
2023-03-29T10:38:10.709Z,2.55
2023-03-29T10:40:47.518Z,2.90
2023-03-29T10:43:17.477Z,3.38
2023-03-29T10:45:47.344Z,4.95
2023-03-29T10:48:16.328Z,3.05
2023-03-29T10:50:49.738Z,4.85
2023-03-29T10:53:27.760Z,3.17
2023-03-29T10:56:39.234Z,3.17
2023-03-29T10:59:28.680Z,2.95
2023-03-29T11:02:14.432Z,3.95
2023-03-29T11:05:00.368Z,2.47
2023-03-29T11:07:52.336Z,2.17
2023-03-29T11:10:43.313Z,2.10
2023-03-29T11:13:22.553Z,2.10
2023-03-29T11:16:11.053Z,2.10
2023-03-29T11:18:41.363Z,2.45
2023-03-29T11:21:23.719Z,3.65
2023-03-29T11:24:18.503Z,2.10
2023-03-29T11:27:16.212Z,3.00
2023-03-29T11:29:58.826Z,2.90
2023-03-29T11:32:49.181Z,3.38
2023-03-29T11:35:38.114Z,3.15
2023-03-29T11:38:32.439Z,2.50
2023-03-29T11:41:06.109Z,2.53
2023-03-29T11:43:33.419Z,2.63
2023-03-29T11:46:20.888Z,1.70
2023-03-29T11:48:55.918Z,2.88
2023-03-29T11:51:28.368Z,2.88
2023-03-29T11:54:13.429Z,2.53
2023-03-29T11:56:47.507Z,2.30
2023-03-29T11:59:23.710Z,2.60
2023-03-29T12:02:09.355Z,2.50
2023-03-29T12:04:46.741Z,2.05
2023-03-29T12:07:20.039Z,2.10
2023-03-29T12:09:55.024Z,1.75
2023-03-29T12:12:28.740Z,2.60
2023-03-29T12:15:09.691Z,1.60
2023-03-29T12:17:44.489Z,2.25
2023-03-29T12:20:19.666Z,2.22
2023-03-29T12:22:51.083Z,3.03
2023-03-29T12:25:47.748Z,4.32
2023-03-29T12:28:15.266Z,2.70
2023-03-29T12:31:07.687Z,2.30
2023-03-29T12:34:02.572Z,3.72
2023-03-29T12:37:02.167Z,2.10
2023-03-29T12:39:51.698Z,2.05
2023-03-29T12:43:04.073Z,2.95
2023-03-29T12:46:01.921Z,1.98
2023-03-29T12:48:30.579Z,2.75
2023-03-29T12:51:04.084Z,1.73
2023-03-29T12:53:36.124Z,2.00
2023-03-29T12:56:04.072Z,2.08
2023-03-29T12:58:43.105Z,2.00
2023-03-29T13:01:23.417Z,2.40
2023-03-29T13:03:56.910Z,2.40
2023-03-29T13:06:31.462Z,1.90
2023-03-29T13:09:05.888Z,2.20
2023-03-29T13:11:41.455Z,2.10
2023-03-29T13:14:19.409Z,3.65
2023-03-29T13:16:47.013Z,2.42
2023-03-29T13:19:46.348Z,2.72
2023-03-29T13:22:45.964Z,2.40
2023-03-29T13:25:34.600Z,2.58
2023-03-29T13:28:40.765Z,2.15
2023-03-29T13:31:32.460Z,3.08
2023-03-29T13:34:19.001Z,3.35
2023-03-29T13:36:52.365Z,2.78
2023-03-29T13:39:31.162Z,4.95
2023-03-29T13:42:25.664Z,3.67
2023-03-29T13:44:53.986Z,2.88
2023-03-29T13:47:33.234Z,4.55
2023-03-29T13:50:16.803Z,3.10
2023-03-29T13:52:57.937Z,2.60
2023-03-29T13:55:30.922Z,2.70
2023-03-29T14:00:37.359Z,2.42
2023-03-29T14:03:14.529Z,2.75
2023-03-29T14:05:48.161Z,3.08
2023-03-29T14:08:37.604Z,3.42
2023-03-29T14:11:07.777Z,4.20
2023-03-29T14:13:35.393Z,3.60
2023-03-29T14:16:07.266Z,3.75
2023-03-29T14:18:42.685Z,3.63
2023-03-29T14:21:12.801Z,4.13
2023-03-29T14:23:43.868Z,3.65
2023-03-29T14:26:23.059Z,3.55
2023-03-29T14:28:53.216Z,3.65
2023-03-29T14:31:41.843Z,4.93
2023-03-29T14:34:15.042Z,4.85
2023-03-29T14:36:45.774Z,4.38
2023-03-29T14:39:18.259Z,4.18
2023-03-29T14:41:53.665Z,4.80
2023-03-29T14:44:23.606Z,4.82
2023-03-29T14:46:50.890Z,5.90
2023-03-29T14:49:21.673Z,4.47
2023-03-29T14:51:49.728Z,4.03
2023-03-29T14:54:22.685Z,4.75
2023-03-29T14:56:51.189Z,5.07
2023-03-29T14:59:41.077Z,3.95
2023-03-29T15:02:29.499Z,5.82
2023-03-29T15:05:24.283Z,7.50
2023-03-29T15:10:23.974Z,9.77
2023-03-29T15:12:51.788Z,10.30
2023-03-29T15:15:19.083Z,11.30
2023-03-29T15:17:52.167Z,11.38
2023-03-29T15:20:23.493Z,10.20
2023-03-29T15:22:56.801Z,8.35
2023-03-29T15:25:27.988Z,8.10
2023-03-29T15:28:00.258Z,6.05
2023-03-29T15:30:35.280Z,5.90
2023-03-29T15:33:29.776Z,6.90
2023-03-29T15:35:57.531Z,6.90
2023-03-29T15:38:33.154Z,7.25
2023-03-29T15:41:08.606Z,6.68
2023-03-29T15:43:36.811Z,6.95
2023-03-29T15:46:04.321Z,6.80
2023-03-29T15:48:33.934Z,7.43
2023-03-29T15:51:05.722Z,8.13
2023-03-29T15:53:33.944Z,7.43
2023-03-29T15:56:02.834Z,8.57
2023-03-29T15:58:32.572Z,9.48
2023-03-29T16:01:34.977Z,12.18
2023-03-29T16:04:05.588Z,15.10
2023-03-29T16:06:34.869Z,16.92
2023-03-29T16:09:02.247Z,17.25
2023-03-29T16:11:29.360Z,18.35
2023-03-29T16:13:57.079Z,20.05
2023-03-29T16:16:24.825Z,20.85
2023-03-29T16:18:52.221Z,21.92
2023-03-29T16:21:22.374Z,15.90
2023-03-29T16:23:50.637Z,17.27
2023-03-29T16:26:18.002Z,16.38
2023-03-29T16:28:45.329Z,17.13
2023-03-29T16:31:14.253Z,19.00
2023-03-29T16:33:41.949Z,17.88
2023-03-29T16:36:10.234Z,21.60
2023-03-29T16:38:37.753Z,18.48
2023-03-29T16:41:05.269Z,19.30
2023-03-29T16:43:32.553Z,23.02
2023-03-29T16:45:59.949Z,21.45
2023-03-29T16:48:27.389Z,19.92
2023-03-29T16:50:54.671Z,22.13
2023-03-29T16:53:27.115Z,21.85
2023-03-29T16:55:54.756Z,20.50
2023-03-29T16:58:23.372Z,22.15
2023-03-29T17:00:52.089Z,22.45
2023-03-29T17:03:20.126Z,22.83
2023-03-29T17:05:52.108Z,23.90
2023-03-29T17:08:20.511Z,24.38
2023-03-29T17:10:52.882Z,23.73
2023-03-29T17:13:21.331Z,23.98
2023-03-29T17:15:51.769Z,25.85
2023-03-29T17:18:24.005Z,27.30
2023-03-29T17:20:53.034Z,23.15
2023-03-29T17:23:20.237Z,26.90
2023-03-29T17:25:49.066Z,28.48
2023-03-29T17:28:16.187Z,24.15
2023-03-29T17:30:46.474Z,26.13
2023-03-29T17:33:15.950Z,26.17
2023-03-29T17:35:44.513Z,30.00
2023-03-29T17:38:12.320Z,26.75
2023-03-29T17:40:39.497Z,26.58
2023-03-29T17:43:06.810Z,27.60
2023-03-29T17:45:35.469Z,24.92
2023-03-29T17:48:06.209Z,26.63
2023-03-29T17:50:34.302Z,26.83
2023-03-29T17:53:01.474Z,27.60
2023-03-29T17:55:29.201Z,26.27
2023-03-29T17:57:56.531Z,25.33
2023-03-29T18:00:23.638Z,26.77
2023-03-29T18:02:50.997Z,26.45
2023-03-29T18:05:18.767Z,25.08
2023-03-29T18:07:46.304Z,23.00
2023-03-29T18:10:13.604Z,22.02
2023-03-29T18:12:40.821Z,23.38
2023-03-29T18:15:08.588Z,22.48
2023-03-29T18:17:35.936Z,20.58
2023-03-29T18:20:09.540Z,21.73
2023-03-29T18:22:36.706Z,19.40
2023-03-29T18:25:05.694Z,19.75
2023-03-29T18:27:33.053Z,18.73
2023-03-29T18:30:00.507Z,19.20
2023-03-29T18:32:31.313Z,20.25
2023-03-29T18:34:58.868Z,19.80
2023-03-29T18:37:26.294Z,17.60
2023-03-29T18:39:53.382Z,17.92
2023-03-29T18:42:22.408Z,16.85
2023-03-29T18:44:49.626Z,14.68
2023-03-29T18:47:18.711Z,14.98
2023-03-29T18:49:47.605Z,15.35
2023-03-29T18:52:14.653Z,15.68
2023-03-29T18:54:42.021Z,14.68
2023-03-29T18:57:09.412Z,15.35
2023-03-29T18:59:37.017Z,14.05
2023-03-29T19:02:04.765Z,14.10
2023-03-29T19:04:32.005Z,14.70
2023-03-29T19:07:01.434Z,15.73
2023-03-29T19:09:28.916Z,14.27
2023-03-29T19:11:58.069Z,14.00
2023-03-29T19:14:25.540Z,13.27
2023-03-29T19:16:53.395Z,12.50
2023-03-29T19:19:23.373Z,11.98
2023-03-29T19:21:50.480Z,12.15
2023-03-29T19:24:18.160Z,12.20
2023-03-29T19:26:48.722Z,10.85
2023-03-29T19:29:15.934Z,10.43
2023-03-29T19:31:43.172Z,10.63
2023-03-29T19:34:11.432Z,11.00
2023-03-29T19:36:39.004Z,10.98
2023-03-29T19:39:07.287Z,11.07
2023-03-29T19:41:34.502Z,10.55
2023-03-29T19:44:01.908Z,10.27
2023-03-29T19:46:29.824Z,9.23
2023-03-29T19:48:58.488Z,9.00
2023-03-29T19:51:29.979Z,9.13
2023-03-29T19:53:57.649Z,9.65
2023-03-29T19:56:26.658Z,9.18
2023-03-29T19:58:54.310Z,9.57
2023-03-29T20:01:22.054Z,8.45
2023-03-29T20:03:49.857Z,8.50
2023-03-29T20:06:18.203Z,8.20
2023-03-29T20:08:45.892Z,9.85
2023-03-29T20:11:15.099Z,8.63
2023-03-29T20:13:45.315Z,7.95
2023-03-29T20:16:16.131Z,9.18
2023-03-29T20:18:46.710Z,8.45
2023-03-29T20:21:16.702Z,8.15
2023-03-29T20:23:44.893Z,7.60
2023-03-29T20:26:12.068Z,7.88
2023-03-29T20:28:39.419Z,8.35
2023-03-29T20:31:11.404Z,7.50
2023-03-29T20:33:39.488Z,8.60
2023-03-29T20:36:06.906Z,7.88
2023-03-29T20:38:35.472Z,7.82
2023-03-29T20:41:04.791Z,9.98
2023-03-29T20:43:37.661Z,8.27
2023-03-29T20:46:06.079Z,7.95
2023-03-29T20:48:33.477Z,7.97
2023-03-29T20:51:03.357Z,8.10
2023-03-29T20:53:34.570Z,7.57
2023-03-29T20:56:03.447Z,8.70
2023-03-29T20:58:30.764Z,8.02
2023-03-29T21:00:58.996Z,7.97
2023-03-29T21:03:26.301Z,8.57
2023-03-29T21:05:55.241Z,7.63
2023-03-29T21:08:22.334Z,8.35
2023-03-29T21:10:49.490Z,8.93
2023-03-29T21:13:18.209Z,9.10
2023-03-29T21:15:46.657Z,8.65
2023-03-29T21:18:14.154Z,8.68
2023-03-29T21:20:42.104Z,8.82
2023-03-29T21:23:09.210Z,7.97
2023-03-29T21:25:37.366Z,7.32
2023-03-29T21:28:04.526Z,9.18
2023-03-29T21:30:32.263Z,9.18
2023-03-29T21:33:00.615Z,9.65
2023-03-29T21:35:28.320Z,9.05
2023-03-29T21:37:55.565Z,9.38
2023-03-29T21:40:23.046Z,9.65
2023-03-29T21:42:50.497Z,8.90
2023-03-29T21:45:17.708Z,10.10
2023-03-29T21:47:45.045Z,8.70
2023-03-29T21:50:12.244Z,9.15
2023-03-29T21:52:39.283Z,9.10
2023-03-29T21:55:06.679Z,8.43
2023-03-29T21:57:33.760Z,7.43
2023-03-29T22:00:00.950Z,7.47
2023-03-29T22:02:30.146Z,7.75
2023-03-29T22:04:57.335Z,7.88
2023-03-29T22:07:24.339Z,8.48
2023-03-29T22:09:51.467Z,7.78
2023-03-29T22:12:18.900Z,8.65
2023-03-29T22:14:46.083Z,8.68
2023-03-29T22:17:13.759Z,8.75
2023-03-29T22:19:41.878Z,8.82
2023-03-29T22:22:13.731Z,9.13
2023-03-29T22:24:42.339Z,9.63
2023-03-29T22:27:10.780Z,8.88
2023-03-29T22:29:37.958Z,8.82
2023-03-29T22:32:06.188Z,9.52
2023-03-29T22:34:33.574Z,10.52
2023-03-29T22:37:00.914Z,9.52
2023-03-29T22:39:28.624Z,9.07
2023-03-29T22:41:56.147Z,9.20
2023-03-29T22:44:23.769Z,9.43
2023-03-29T22:46:51.761Z,8.93
2023-03-29T22:49:19.815Z,9.13
2023-03-29T22:51:47.143Z,8.95
2023-03-29T22:54:14.289Z,9.02
2023-03-29T22:56:41.440Z,8.65
2023-03-29T22:59:08.923Z,10.52
2023-03-29T23:01:36.082Z,9.15
2023-03-29T23:04:04.358Z,9.30
2023-03-29T23:06:31.739Z,8.70
2023-03-29T23:08:58.906Z,10.43
2023-03-29T23:11:26.583Z,9.55
2023-03-29T23:13:56.732Z,9.93
2023-03-29T23:16:25.527Z,9.75
2023-03-29T23:18:52.604Z,10.13
2023-03-29T23:21:19.719Z,10.10
2023-03-29T23:23:46.956Z,11.20
2023-03-29T23:26:14.166Z,9.27
2023-03-29T23:28:41.296Z,10.27
2023-03-29T23:31:11.682Z,10.05
2023-03-29T23:33:41.405Z,10.77
2023-03-29T23:36:14.029Z,10.10
2023-03-29T23:38:42.515Z,10.63
2023-03-29T23:41:12.883Z,11.30
2023-03-29T23:43:42.194Z,11.43
2023-03-29T23:46:17.481Z,10.15
2023-03-29T23:48:46.222Z,12.32
2023-03-29T23:51:13.516Z,10.88
2023-03-29T23:53:41.394Z,11.65
2023-03-29T23:56:09.257Z,11.82
2023-03-29T23:58:37.910Z,11.00
